sensor_id;sensor_type;location;lat;lon;timestamp;temperature;humidity
16515;DHT22;8370;52.556;7.970;2023-05-10T00:02:01;14.70;99.90
16515;DHT22;8370;52.556;7.970;2023-05-10T00:04:27;14.70;99.90
16515;DHT22;8370;52.556;7.970;2023-05-10T00:06:53;14.70;99.90
16515;DHT22;8370;52.556;7.970;2023-05-10T00:09:18;14.80;99.90
16515;DHT22;8370;52.556;7.970;2023-05-10T00:11:43;14.80;99.90
16515;DHT22;8370;52.556;7.970;2023-05-10T00:14:09;14.80;99.90
16515;DHT22;8370;52.556;7.970;2023-05-10T00:16:34;14.80;99.90
16515;DHT22;8370;52.556;7.970;2023-05-10T00:19:00;14.70;99.90
16515;DHT22;8370;52.556;7.970;2023-05-10T00:21:25;14.70;99.90
16515;DHT22;8370;52.556;7.970;2023-05-10T00:23:51;14.60;99.90
16515;DHT22;8370;52.556;7.970;2023-05-10T00:26:16;14.60;99.90
16515;DHT22;8370;52.556;7.970;2023-05-10T00:28:42;14.60;99.90
16515;DHT22;8370;52.556;7.970;2023-05-10T00:31:07;14.60;99.90
16515;DHT22;8370;52.556;7.970;2023-05-10T00:33:32;14.50;99.90
16515;DHT22;8370;52.556;7.970;2023-05-10T00:35:58;14.50;99.90
16515;DHT22;8370;52.556;7.970;2023-05-10T00:38:23;14.50;99.90
16515;DHT22;8370;52.556;7.970;2023-05-10T00:40:49;14.50;99.90
16515;DHT22;8370;52.556;7.970;2023-05-10T00:43:14;14.50;99.90
16515;DHT22;8370;52.556;7.970;2023-05-10T00:45:39;14.50;99.90
16515;DHT22;8370;52.556;7.970;2023-05-10T00:48:05;14.50;99.90
16515;DHT22;8370;52.556;7.970;2023-05-10T00:50:31;14.40;99.90
16515;DHT22;8370;52.556;7.970;2023-05-10T00:52:58;14.50;99.90
16515;DHT22;8370;52.556;7.970;2023-05-10T00:55:24;14.50;99.90
16515;DHT22;8370;52.556;7.970;2023-05-10T00:57:49;14.50;99.90
16515;DHT22;8370;52.556;7.970;2023-05-10T01:00:15;14.50;99.90
16515;DHT22;8370;52.556;7.970;2023-05-10T01:02:47;14.50;99.90
16515;DHT22;8370;52.556;7.970;2023-05-10T01:05:12;14.50;99.90
16515;DHT22;8370;52.556;7.970;2023-05-10T01:07:38;14.50;99.90
16515;DHT22;8370;52.556;7.970;2023-05-10T01:10:04;14.50;99.90
16515;DHT22;8370;52.556;7.970;2023-05-10T01:12:30;14.50;99.90
16515;DHT22;8370;52.556;7.970;2023-05-10T01:14:55;14.40;99.90
16515;DHT22;8370;52.556;7.970;2023-05-10T01:17:21;14.50;99.90
16515;DHT22;8370;52.556;7.970;2023-05-10T01:19:47;14.50;99.90
16515;DHT22;8370;52.556;7.970;2023-05-10T01:22:26;14.50;99.90
16515;DHT22;8370;52.556;7.970;2023-05-10T01:35:47;14.50;99.90
16515;DHT22;8370;52.556;7.970;2023-05-10T01:43:48;14.50;99.90
16515;DHT22;8370;52.556;7.970;2023-05-10T01:46:19;14.50;99.90
16515;DHT22;8370;52.556;7.970;2023-05-10T01:48:52;14.50;99.90
16515;DHT22;8370;52.556;7.970;2023-05-10T01:51:19;14.40;99.90
16515;DHT22;8370;52.556;7.970;2023-05-10T01:53:46;14.40;99.90
16515;DHT22;8370;52.556;7.970;2023-05-10T01:56:13;14.20;99.90
16515;DHT22;8370;52.556;7.970;2023-05-10T01:58:39;14.20;99.90
16515;DHT22;8370;52.556;7.970;2023-05-10T02:01:05;14.10;99.90
16515;DHT22;8370;52.556;7.970;2023-05-10T02:03:31;14.00;99.90
16515;DHT22;8370;52.556;7.970;2023-05-10T02:05:57;14.00;99.90
16515;DHT22;8370;52.556;7.970;2023-05-10T02:08:22;14.00;99.90
16515;DHT22;8370;52.556;7.970;2023-05-10T02:10:50;13.90;99.90
16515;DHT22;8370;52.556;7.970;2023-05-10T02:13:16;13.90;99.90
16515;DHT22;8370;52.556;7.970;2023-05-10T02:15:41;13.90;99.90
16515;DHT22;8370;52.556;7.970;2023-05-10T02:18:08;13.90;99.90
16515;DHT22;8370;52.556;7.970;2023-05-10T02:20:34;13.80;99.90
16515;DHT22;8370;52.556;7.970;2023-05-10T02:23:00;13.80;99.90
16515;DHT22;8370;52.556;7.970;2023-05-10T02:25:27;13.80;99.90
16515;DHT22;8370;52.556;7.970;2023-05-10T02:27:54;13.80;99.90
16515;DHT22;8370;52.556;7.970;2023-05-10T02:30:21;13.90;99.90
16515;DHT22;8370;52.556;7.970;2023-05-10T02:32:47;13.90;99.90
16515;DHT22;8370;52.556;7.970;2023-05-10T02:35:13;13.90;99.90
16515;DHT22;8370;52.556;7.970;2023-05-10T02:37:40;13.90;99.90
16515;DHT22;8370;52.556;7.970;2023-05-10T02:40:06;13.90;99.90
16515;DHT22;8370;52.556;7.970;2023-05-10T02:42:32;13.80;99.90
16515;DHT22;8370;52.556;7.970;2023-05-10T02:45:01;13.70;99.90
16515;DHT22;8370;52.556;7.970;2023-05-10T02:47:28;13.60;99.90
16515;DHT22;8370;52.556;7.970;2023-05-10T02:49:54;13.60;99.90
16515;DHT22;8370;52.556;7.970;2023-05-10T02:52:24;13.60;99.90
16515;DHT22;8370;52.556;7.970;2023-05-10T02:54:52;13.60;99.90
16515;DHT22;8370;52.556;7.970;2023-05-10T02:57:22;13.50;99.90
16515;DHT22;8370;52.556;7.970;2023-05-10T02:59:50;13.50;99.90
16515;DHT22;8370;52.556;7.970;2023-05-10T03:02:15;13.40;99.90
16515;DHT22;8370;52.556;7.970;2023-05-10T03:04:41;13.40;99.90
16515;DHT22;8370;52.556;7.970;2023-05-10T03:07:06;13.30;99.90
16515;DHT22;8370;52.556;7.970;2023-05-10T03:09:32;13.30;99.90
16515;DHT22;8370;52.556;7.970;2023-05-10T03:12:07;13.30;99.90
16515;DHT22;8370;52.556;7.970;2023-05-10T03:14:37;13.30;99.90
16515;DHT22;8370;52.556;7.970;2023-05-10T03:19:56;13.30;99.90
16515;DHT22;8370;52.556;7.970;2023-05-10T03:22:26;13.20;99.90
16515;DHT22;8370;52.556;7.970;2023-05-10T03:24:54;13.20;99.90
16515;DHT22;8370;52.556;7.970;2023-05-10T03:27:21;13.20;99.90
16515;DHT22;8370;52.556;7.970;2023-05-10T03:29:47;13.10;99.90
16515;DHT22;8370;52.556;7.970;2023-05-10T03:32:13;13.10;99.90
16515;DHT22;8370;52.556;7.970;2023-05-10T03:34:42;13.00;99.90
16515;DHT22;8370;52.556;7.970;2023-05-10T03:37:08;13.00;99.90
16515;DHT22;8370;52.556;7.970;2023-05-10T03:39:34;13.00;99.90
16515;DHT22;8370;52.556;7.970;2023-05-10T03:41:59;13.00;99.90
16515;DHT22;8370;52.556;7.970;2023-05-10T03:44:24;12.90;99.90
16515;DHT22;8370;52.556;7.970;2023-05-10T03:46:50;12.90;99.90
16515;DHT22;8370;52.556;7.970;2023-05-10T03:49:15;12.90;99.90
16515;DHT22;8370;52.556;7.970;2023-05-10T03:51:41;12.90;99.90
16515;DHT22;8370;52.556;7.970;2023-05-10T03:54:07;12.90;99.90
16515;DHT22;8370;52.556;7.970;2023-05-10T03:56:32;12.90;99.90
16515;DHT22;8370;52.556;7.970;2023-05-10T03:58:57;12.90;99.90
16515;DHT22;8370;52.556;7.970;2023-05-10T04:01:23;12.90;99.90
16515;DHT22;8370;52.556;7.970;2023-05-10T04:03:48;12.90;99.90
16515;DHT22;8370;52.556;7.970;2023-05-10T04:06:14;12.90;99.90
16515;DHT22;8370;52.556;7.970;2023-05-10T04:08:39;12.90;99.90
16515;DHT22;8370;52.556;7.970;2023-05-10T04:11:08;12.90;99.90
16515;DHT22;8370;52.556;7.970;2023-05-10T04:13:33;12.90;99.90
16515;DHT22;8370;52.556;7.970;2023-05-10T04:15:59;12.90;99.90
16515;DHT22;8370;52.556;7.970;2023-05-10T04:18:25;12.90;99.90
16515;DHT22;8370;52.556;7.970;2023-05-10T04:20:50;12.90;99.90
16515;DHT22;8370;52.556;7.970;2023-05-10T04:23:16;12.90;99.90
16515;DHT22;8370;52.556;7.970;2023-05-10T04:25:42;12.90;99.90
16515;DHT22;8370;52.556;7.970;2023-05-10T04:28:07;12.90;99.90
16515;DHT22;8370;52.556;7.970;2023-05-10T04:30:33;12.90;99.90
16515;DHT22;8370;52.556;7.970;2023-05-10T04:32:58;12.90;99.90
16515;DHT22;8370;52.556;7.970;2023-05-10T04:35:24;12.90;99.90
16515;DHT22;8370;52.556;7.970;2023-05-10T04:37:49;12.90;99.90
16515;DHT22;8370;52.556;7.970;2023-05-10T04:40:14;12.90;99.90
16515;DHT22;8370;52.556;7.970;2023-05-10T04:42:40;12.80;99.90
16515;DHT22;8370;52.556;7.970;2023-05-10T04:45:06;12.80;99.90
16515;DHT22;8370;52.556;7.970;2023-05-10T04:47:32;12.90;99.90
16515;DHT22;8370;52.556;7.970;2023-05-10T04:49:58;12.80;99.90
16515;DHT22;8370;52.556;7.970;2023-05-10T04:52:23;12.80;99.90
16515;DHT22;8370;52.556;7.970;2023-05-10T04:54:49;12.90;99.90
16515;DHT22;8370;52.556;7.970;2023-05-10T04:57:14;12.90;99.90
16515;DHT22;8370;52.556;7.970;2023-05-10T04:59:40;12.90;99.90
16515;DHT22;8370;52.556;7.970;2023-05-10T05:02:05;12.90;99.90
16515;DHT22;8370;52.556;7.970;2023-05-10T05:04:30;12.90;99.90
16515;DHT22;8370;52.556;7.970;2023-05-10T05:06:56;12.90;99.90
16515;DHT22;8370;52.556;7.970;2023-05-10T05:09:22;12.90;99.90
16515;DHT22;8370;52.556;7.970;2023-05-10T05:11:47;13.00;99.90
16515;DHT22;8370;52.556;7.970;2023-05-10T05:14:13;13.00;99.90
16515;DHT22;8370;52.556;7.970;2023-05-10T05:16:39;13.00;99.90
16515;DHT22;8370;52.556;7.970;2023-05-10T05:19:04;13.00;99.90
16515;DHT22;8370;52.556;7.970;2023-05-10T05:21:30;13.00;99.90
16515;DHT22;8370;52.556;7.970;2023-05-10T05:23:57;13.00;99.90
16515;DHT22;8370;52.556;7.970;2023-05-10T05:26:22;13.00;99.90
16515;DHT22;8370;52.556;7.970;2023-05-10T05:28:48;13.10;99.90
16515;DHT22;8370;52.556;7.970;2023-05-10T05:31:15;13.10;99.90
16515;DHT22;8370;52.556;7.970;2023-05-10T05:33:40;13.10;99.90
16515;DHT22;8370;52.556;7.970;2023-05-10T05:36:05;13.20;99.90
16515;DHT22;8370;52.556;7.970;2023-05-10T05:38:31;13.20;99.90
16515;DHT22;8370;52.556;7.970;2023-05-10T05:40:57;13.20;99.90
16515;DHT22;8370;52.556;7.970;2023-05-10T05:43:22;13.20;99.90
16515;DHT22;8370;52.556;7.970;2023-05-10T05:45:48;13.20;99.90
16515;DHT22;8370;52.556;7.970;2023-05-10T05:48:13;13.20;99.90
16515;DHT22;8370;52.556;7.970;2023-05-10T05:50:38;13.20;99.90
16515;DHT22;8370;52.556;7.970;2023-05-10T05:53:04;13.30;99.90
16515;DHT22;8370;52.556;7.970;2023-05-10T05:55:29;13.40;99.90
16515;DHT22;8370;52.556;7.970;2023-05-10T05:57:57;13.40;99.90
16515;DHT22;8370;52.556;7.970;2023-05-10T06:00:22;13.40;99.90
16515;DHT22;8370;52.556;7.970;2023-05-10T06:02:47;13.40;99.90
16515;DHT22;8370;52.556;7.970;2023-05-10T06:05:13;13.40;99.90
16515;DHT22;8370;52.556;7.970;2023-05-10T06:07:39;13.40;99.90
16515;DHT22;8370;52.556;7.970;2023-05-10T06:10:07;13.40;99.90
16515;DHT22;8370;52.556;7.970;2023-05-10T06:12:33;13.40;99.90
16515;DHT22;8370;52.556;7.970;2023-05-10T06:14:58;13.30;99.90
16515;DHT22;8370;52.556;7.970;2023-05-10T06:17:23;13.30;99.90
16515;DHT22;8370;52.556;7.970;2023-05-10T06:19:49;13.30;99.90
16515;DHT22;8370;52.556;7.970;2023-05-10T06:22:15;13.30;99.90
16515;DHT22;8370;52.556;7.970;2023-05-10T06:24:40;13.30;99.90
16515;DHT22;8370;52.556;7.970;2023-05-10T06:27:06;13.40;99.90
16515;DHT22;8370;52.556;7.970;2023-05-10T06:29:32;13.40;99.90
16515;DHT22;8370;52.556;7.970;2023-05-10T06:31:57;13.40;99.90
16515;DHT22;8370;52.556;7.970;2023-05-10T06:34:24;13.40;99.90
16515;DHT22;8370;52.556;7.970;2023-05-10T06:36:49;13.50;99.90
16515;DHT22;8370;52.556;7.970;2023-05-10T06:39:14;13.50;99.90
16515;DHT22;8370;52.556;7.970;2023-05-10T06:41:40;13.60;99.90
16515;DHT22;8370;52.556;7.970;2023-05-10T06:44:06;13.60;99.90
16515;DHT22;8370;52.556;7.970;2023-05-10T06:46:31;13.60;99.90
16515;DHT22;8370;52.556;7.970;2023-05-10T06:48:56;13.60;99.90
16515;DHT22;8370;52.556;7.970;2023-05-10T06:51:22;13.60;99.90
16515;DHT22;8370;52.556;7.970;2023-05-10T06:53:47;13.60;99.90
16515;DHT22;8370;52.556;7.970;2023-05-10T06:56:13;13.70;99.90
16515;DHT22;8370;52.556;7.970;2023-05-10T06:58:39;13.70;99.90
16515;DHT22;8370;52.556;7.970;2023-05-10T07:01:04;13.60;99.90
16515;DHT22;8370;52.556;7.970;2023-05-10T07:03:30;13.60;99.90
16515;DHT22;8370;52.556;7.970;2023-05-10T07:06:00;13.50;99.90
16515;DHT22;8370;52.556;7.970;2023-05-10T07:08:25;13.50;99.90
16515;DHT22;8370;52.556;7.970;2023-05-10T07:10:51;13.60;99.90
16515;DHT22;8370;52.556;7.970;2023-05-10T07:13:16;13.70;99.90
16515;DHT22;8370;52.556;7.970;2023-05-10T07:15:42;13.90;99.90
16515;DHT22;8370;52.556;7.970;2023-05-10T07:18:07;14.00;99.90
16515;DHT22;8370;52.556;7.970;2023-05-10T07:20:33;14.20;99.90
16515;DHT22;8370;52.556;7.970;2023-05-10T07:22:58;14.40;99.90
16515;DHT22;8370;52.556;7.970;2023-05-10T07:25:23;14.60;99.90
16515;DHT22;8370;52.556;7.970;2023-05-10T07:27:49;14.50;99.90
16515;DHT22;8370;52.556;7.970;2023-05-10T07:30:14;14.60;99.90
16515;DHT22;8370;52.556;7.970;2023-05-10T07:32:40;14.70;99.90
16515;DHT22;8370;52.556;7.970;2023-05-10T07:35:07;14.60;99.90
16515;DHT22;8370;52.556;7.970;2023-05-10T07:37:32;14.70;99.90
16515;DHT22;8370;52.556;7.970;2023-05-10T07:39:58;14.70;99.90
16515;DHT22;8370;52.556;7.970;2023-05-10T07:42:23;14.80;99.90
16515;DHT22;8370;52.556;7.970;2023-05-10T07:44:49;14.90;99.90
16515;DHT22;8370;52.556;7.970;2023-05-10T07:47:14;15.10;99.90
16515;DHT22;8370;52.556;7.970;2023-05-10T07:49:39;15.20;99.90
16515;DHT22;8370;52.556;7.970;2023-05-10T07:52:05;15.20;99.90
16515;DHT22;8370;52.556;7.970;2023-05-10T07:54:30;15.20;99.90
16515;DHT22;8370;52.556;7.970;2023-05-10T07:56:56;15.20;99.90
16515;DHT22;8370;52.556;7.970;2023-05-10T07:59:21;15.20;99.90
16515;DHT22;8370;52.556;7.970;2023-05-10T08:01:46;15.20;99.90
16515;DHT22;8370;52.556;7.970;2023-05-10T08:04:12;15.30;99.90
16515;DHT22;8370;52.556;7.970;2023-05-10T08:06:37;15.30;99.90
16515;DHT22;8370;52.556;7.970;2023-05-10T08:09:03;15.30;99.90
16515;DHT22;8370;52.556;7.970;2023-05-10T08:11:28;15.30;99.90
16515;DHT22;8370;52.556;7.970;2023-05-10T08:13:54;15.40;99.90
16515;DHT22;8370;52.556;7.970;2023-05-10T08:16:19;15.30;99.90
16515;DHT22;8370;52.556;7.970;2023-05-10T08:18:45;15.20;99.90
16515;DHT22;8370;52.556;7.970;2023-05-10T08:21:12;15.10;99.90
16515;DHT22;8370;52.556;7.970;2023-05-10T08:23:37;15.20;99.90
16515;DHT22;8370;52.556;7.970;2023-05-10T08:26:03;15.30;99.90
16515;DHT22;8370;52.556;7.970;2023-05-10T08:28:28;15.40;99.90
16515;DHT22;8370;52.556;7.970;2023-05-10T08:30:54;15.40;99.90
16515;DHT22;8370;52.556;7.970;2023-05-10T08:33:19;15.40;99.90
16515;DHT22;8370;52.556;7.970;2023-05-10T08:35:45;15.30;99.90
16515;DHT22;8370;52.556;7.970;2023-05-10T08:38:10;15.10;99.90
16515;DHT22;8370;52.556;7.970;2023-05-10T08:40:42;14.90;99.90
16515;DHT22;8370;52.556;7.970;2023-05-10T08:43:11;14.80;99.90
16515;DHT22;8370;52.556;7.970;2023-05-10T08:45:41;14.70;99.90
16515;DHT22;8370;52.556;7.970;2023-05-10T08:48:07;14.70;99.90
16515;DHT22;8370;52.556;7.970;2023-05-10T08:50:36;14.70;99.90
16515;DHT22;8370;52.556;7.970;2023-05-10T08:53:03;14.90;99.90
16515;DHT22;8370;52.556;7.970;2023-05-10T08:55:29;15.00;99.90
16515;DHT22;8370;52.556;7.970;2023-05-10T08:57:55;15.30;99.90
16515;DHT22;8370;52.556;7.970;2023-05-10T09:00:21;15.50;99.90
16515;DHT22;8370;52.556;7.970;2023-05-10T09:02:48;15.50;99.90
16515;DHT22;8370;52.556;7.970;2023-05-10T09:05:14;15.90;99.90
16515;DHT22;8370;52.556;7.970;2023-05-10T09:07:41;16.00;99.90
16515;DHT22;8370;52.556;7.970;2023-05-10T09:10:06;16.00;99.90
16515;DHT22;8370;52.556;7.970;2023-05-10T09:12:32;16.10;99.90
16515;DHT22;8370;52.556;7.970;2023-05-10T09:14:59;16.20;99.90
16515;DHT22;8370;52.556;7.970;2023-05-10T09:17:25;16.20;99.90
16515;DHT22;8370;52.556;7.970;2023-05-10T09:19:56;16.10;99.90
16515;DHT22;8370;52.556;7.970;2023-05-10T09:22:22;16.00;99.90
16515;DHT22;8370;52.556;7.970;2023-05-10T09:24:47;16.10;99.90
16515;DHT22;8370;52.556;7.970;2023-05-10T09:27:13;16.10;99.90
16515;DHT22;8370;52.556;7.970;2023-05-10T09:29:39;16.10;99.90
16515;DHT22;8370;52.556;7.970;2023-05-10T09:32:04;16.20;99.90
16515;DHT22;8370;52.556;7.970;2023-05-10T09:34:30;16.30;99.90
16515;DHT22;8370;52.556;7.970;2023-05-10T09:36:57;16.20;99.90
16515;DHT22;8370;52.556;7.970;2023-05-10T09:39:36;16.20;99.90
16515;DHT22;8370;52.556;7.970;2023-05-10T09:42:03;16.20;99.90
16515;DHT22;8370;52.556;7.970;2023-05-10T09:44:29;16.40;99.90
16515;DHT22;8370;52.556;7.970;2023-05-10T09:46:54;16.40;99.90
16515;DHT22;8370;52.556;7.970;2023-05-10T09:49:22;16.50;99.90
16515;DHT22;8370;52.556;7.970;2023-05-10T09:51:59;16.60;99.90
16515;DHT22;8370;52.556;7.970;2023-05-10T09:54:25;16.50;99.90
16515;DHT22;8370;52.556;7.970;2023-05-10T09:56:50;16.70;99.90
16515;DHT22;8370;52.556;7.970;2023-05-10T09:59:15;16.90;99.90
16515;DHT22;8370;52.556;7.970;2023-05-10T10:01:42;16.60;99.90
16515;DHT22;8370;52.556;7.970;2023-05-10T10:04:14;16.60;99.90
16515;DHT22;8370;52.556;7.970;2023-05-10T10:06:40;16.30;99.90
16515;DHT22;8370;52.556;7.970;2023-05-10T10:09:06;16.20;99.90
16515;DHT22;8370;52.556;7.970;2023-05-10T10:11:31;16.00;99.90
16515;DHT22;8370;52.556;7.970;2023-05-10T10:13:57;15.90;99.90
16515;DHT22;8370;52.556;7.970;2023-05-10T10:16:23;15.70;99.90
16515;DHT22;8370;52.556;7.970;2023-05-10T10:18:49;15.60;99.90
16515;DHT22;8370;52.556;7.970;2023-05-10T10:21:15;15.50;99.90
16515;DHT22;8370;52.556;7.970;2023-05-10T10:23:40;15.50;99.90
16515;DHT22;8370;52.556;7.970;2023-05-10T10:26:06;15.50;99.90
16515;DHT22;8370;52.556;7.970;2023-05-10T10:30:59;15.60;99.90
16515;DHT22;8370;52.556;7.970;2023-05-10T10:33:39;15.50;99.90
16515;DHT22;8370;52.556;7.970;2023-05-10T10:36:05;15.50;99.90
16515;DHT22;8370;52.556;7.970;2023-05-10T10:41:28;15.50;99.90
16515;DHT22;8370;52.556;7.970;2023-05-10T10:46:58;15.40;99.90
16515;DHT22;8370;52.556;7.970;2023-05-10T10:49:23;15.40;99.90
16515;DHT22;8370;52.556;7.970;2023-05-10T10:54:51;15.50;99.90
16515;DHT22;8370;52.556;7.970;2023-05-10T10:57:17;15.80;99.90
16515;DHT22;8370;52.556;7.970;2023-05-10T10:59:43;15.90;99.90
16515;DHT22;8370;52.556;7.970;2023-05-10T11:04:55;16.00;99.90
16515;DHT22;8370;52.556;7.970;2023-05-10T11:07:21;16.00;99.90
16515;DHT22;8370;52.556;7.970;2023-05-10T11:09:46;16.20;99.90
16515;DHT22;8370;52.556;7.970;2023-05-10T11:12:12;16.10;99.90
16515;DHT22;8370;52.556;7.970;2023-05-10T11:14:37;16.10;99.90
16515;DHT22;8370;52.556;7.970;2023-05-10T11:17:21;16.10;99.90
16515;DHT22;8370;52.556;7.970;2023-05-10T11:20:02;16.10;99.90
16515;DHT22;8370;52.556;7.970;2023-05-10T11:22:28;16.10;99.90
16515;DHT22;8370;52.556;7.970;2023-05-10T11:24:57;15.90;99.90
16515;DHT22;8370;52.556;7.970;2023-05-10T11:27:23;15.80;99.90
16515;DHT22;8370;52.556;7.970;2023-05-10T11:29:51;15.80;99.90
16515;DHT22;8370;52.556;7.970;2023-05-10T11:32:17;15.70;99.90
16515;DHT22;8370;52.556;7.970;2023-05-10T11:34:46;15.60;99.90
16515;DHT22;8370;52.556;7.970;2023-05-10T11:37:12;15.60;99.90
16515;DHT22;8370;52.556;7.970;2023-05-10T11:39:38;15.50;99.90
16515;DHT22;8370;52.556;7.970;2023-05-10T11:42:03;15.60;99.90
16515;DHT22;8370;52.556;7.970;2023-05-10T11:44:32;15.70;99.90
16515;DHT22;8370;52.556;7.970;2023-05-10T11:46:58;15.90;99.90
16515;DHT22;8370;52.556;7.970;2023-05-10T11:49:24;16.00;99.90
16515;DHT22;8370;52.556;7.970;2023-05-10T11:51:50;16.10;99.90
16515;DHT22;8370;52.556;7.970;2023-05-10T11:54:16;16.20;99.90
16515;DHT22;8370;52.556;7.970;2023-05-10T11:56:41;16.40;99.90
16515;DHT22;8370;52.556;7.970;2023-05-10T11:59:07;16.60;99.90
16515;DHT22;8370;52.556;7.970;2023-05-10T12:01:33;16.60;99.90
16515;DHT22;8370;52.556;7.970;2023-05-10T12:03:58;16.70;99.90
16515;DHT22;8370;52.556;7.970;2023-05-10T12:06:29;16.70;99.90
16515;DHT22;8370;52.556;7.970;2023-05-10T12:08:54;16.90;99.90
16515;DHT22;8370;52.556;7.970;2023-05-10T12:11:20;17.00;99.90
16515;DHT22;8370;52.556;7.970;2023-05-10T12:13:50;16.70;99.90
16515;DHT22;8370;52.556;7.970;2023-05-10T12:16:22;16.50;99.90
16515;DHT22;8370;52.556;7.970;2023-05-10T12:18:48;16.30;99.90
16515;DHT22;8370;52.556;7.970;2023-05-10T12:21:13;16.20;99.90
16515;DHT22;8370;52.556;7.970;2023-05-10T12:23:40;16.00;99.90
16515;DHT22;8370;52.556;7.970;2023-05-10T12:26:05;15.90;99.90
16515;DHT22;8370;52.556;7.970;2023-05-10T12:28:32;15.70;99.90
16515;DHT22;8370;52.556;7.970;2023-05-10T12:30:58;15.60;99.90
16515;DHT22;8370;52.556;7.970;2023-05-10T12:33:24;15.60;99.90
16515;DHT22;8370;52.556;7.970;2023-05-10T12:35:50;15.70;99.90
16515;DHT22;8370;52.556;7.970;2023-05-10T12:38:25;15.80;99.90
16515;DHT22;8370;52.556;7.970;2023-05-10T12:40:51;16.00;99.90
16515;DHT22;8370;52.556;7.970;2023-05-10T12:43:16;16.10;99.90
16515;DHT22;8370;52.556;7.970;2023-05-10T12:45:42;16.20;99.90
16515;DHT22;8370;52.556;7.970;2023-05-10T12:48:07;16.50;99.90
16515;DHT22;8370;52.556;7.970;2023-05-10T12:50:33;16.70;99.90
16515;DHT22;8370;52.556;7.970;2023-05-10T12:52:58;17.00;99.90
16515;DHT22;8370;52.556;7.970;2023-05-10T12:55:23;17.10;99.90
16515;DHT22;8370;52.556;7.970;2023-05-10T12:57:49;17.10;99.90
16515;DHT22;8370;52.556;7.970;2023-05-10T13:00:14;17.10;99.90
16515;DHT22;8370;52.556;7.970;2023-05-10T13:02:40;17.00;99.90
16515;DHT22;8370;52.556;7.970;2023-05-10T13:05:06;17.00;99.90
16515;DHT22;8370;52.556;7.970;2023-05-10T13:07:31;17.10;99.90
16515;DHT22;8370;52.556;7.970;2023-05-10T13:09:56;17.10;99.90
16515;DHT22;8370;52.556;7.970;2023-05-10T13:12:22;17.10;99.90
16515;DHT22;8370;52.556;7.970;2023-05-10T13:14:47;17.20;99.90
16515;DHT22;8370;52.556;7.970;2023-05-10T13:17:13;17.50;99.90
16515;DHT22;8370;52.556;7.970;2023-05-10T13:19:38;17.70;99.90
16515;DHT22;8370;52.556;7.970;2023-05-10T13:22:04;17.70;99.90
16515;DHT22;8370;52.556;7.970;2023-05-10T13:24:29;17.90;99.90
16515;DHT22;8370;52.556;7.970;2023-05-10T13:26:55;18.30;99.90
16515;DHT22;8370;52.556;7.970;2023-05-10T13:29:20;19.50;99.90
16515;DHT22;8370;52.556;7.970;2023-05-10T13:31:47;21.20;99.90
16515;DHT22;8370;52.556;7.970;2023-05-10T13:34:13;22.20;99.90
16515;DHT22;8370;52.556;7.970;2023-05-10T13:36:38;23.20;99.90
16515;DHT22;8370;52.556;7.970;2023-05-10T13:39:04;23.30;99.90
16515;DHT22;8370;52.556;7.970;2023-05-10T13:41:30;23.30;99.90
16515;DHT22;8370;52.556;7.970;2023-05-10T13:43:55;23.90;99.90
16515;DHT22;8370;52.556;7.970;2023-05-10T13:46:21;24.10;99.90
16515;DHT22;8370;52.556;7.970;2023-05-10T13:48:47;24.50;99.90
16515;DHT22;8370;52.556;7.970;2023-05-10T13:51:12;25.20;99.90
16515;DHT22;8370;52.556;7.970;2023-05-10T13:53:38;25.10;99.90
16515;DHT22;8370;52.556;7.970;2023-05-10T13:56:03;25.10;99.90
16515;DHT22;8370;52.556;7.970;2023-05-10T13:58:28;25.20;99.90
16515;DHT22;8370;52.556;7.970;2023-05-10T14:00:54;25.10;99.90
16515;DHT22;8370;52.556;7.970;2023-05-10T14:03:19;25.70;99.90
16515;DHT22;8370;52.556;7.970;2023-05-10T14:05:45;26.00;99.90
16515;DHT22;8370;52.556;7.970;2023-05-10T14:08:10;26.00;99.90
16515;DHT22;8370;52.556;7.970;2023-05-10T14:10:38;25.60;99.90
16515;DHT22;8370;52.556;7.970;2023-05-10T14:13:04;24.90;99.90
16515;DHT22;8370;52.556;7.970;2023-05-10T14:15:30;24.80;99.90
16515;DHT22;8370;52.556;7.970;2023-05-10T14:17:55;25.20;99.90
16515;DHT22;8370;52.556;7.970;2023-05-10T14:20:21;25.50;99.90
16515;DHT22;8370;52.556;7.970;2023-05-10T14:22:46;25.90;99.90
16515;DHT22;8370;52.556;7.970;2023-05-10T14:25:12;26.10;99.90
16515;DHT22;8370;52.556;7.970;2023-05-10T14:27:37;26.50;99.90
16515;DHT22;8370;52.556;7.970;2023-05-10T14:30:03;26.10;99.90
16515;DHT22;8370;52.556;7.970;2023-05-10T14:32:28;25.80;99.90
16515;DHT22;8370;52.556;7.970;2023-05-10T14:34:54;25.60;99.90
16515;DHT22;8370;52.556;7.970;2023-05-10T14:37:20;25.90;99.90
16515;DHT22;8370;52.556;7.970;2023-05-10T14:39:46;26.20;99.90
16515;DHT22;8370;52.556;7.970;2023-05-10T14:42:11;26.20;99.90
16515;DHT22;8370;52.556;7.970;2023-05-10T14:44:37;26.30;99.90
16515;DHT22;8370;52.556;7.970;2023-05-10T14:47:03;25.70;99.90
16515;DHT22;8370;52.556;7.970;2023-05-10T14:49:28;25.60;99.90
16515;DHT22;8370;52.556;7.970;2023-05-10T14:51:54;25.80;99.90
16515;DHT22;8370;52.556;7.970;2023-05-10T14:54:19;25.30;99.90
16515;DHT22;8370;52.556;7.970;2023-05-10T14:56:45;25.40;99.90
16515;DHT22;8370;52.556;7.970;2023-05-10T14:59:11;25.50;99.90
16515;DHT22;8370;52.556;7.970;2023-05-10T15:01:36;25.50;99.90
16515;DHT22;8370;52.556;7.970;2023-05-10T15:04:03;25.20;99.90
16515;DHT22;8370;52.556;7.970;2023-05-10T15:06:32;24.50;99.90
16515;DHT22;8370;52.556;7.970;2023-05-10T15:08:57;23.90;99.90
16515;DHT22;8370;52.556;7.970;2023-05-10T15:11:23;23.10;99.90
16515;DHT22;8370;52.556;7.970;2023-05-10T15:13:48;23.00;99.90
16515;DHT22;8370;52.556;7.970;2023-05-10T15:16:14;23.60;99.90
16515;DHT22;8370;52.556;7.970;2023-05-10T15:18:39;24.20;99.90
16515;DHT22;8370;52.556;7.970;2023-05-10T15:21:05;24.30;99.90
16515;DHT22;8370;52.556;7.970;2023-05-10T15:23:30;23.70;99.90
16515;DHT22;8370;52.556;7.970;2023-05-10T15:25:55;23.40;99.90
16515;DHT22;8370;52.556;7.970;2023-05-10T15:28:21;22.90;99.90
16515;DHT22;8370;52.556;7.970;2023-05-10T15:30:47;22.50;99.90
16515;DHT22;8370;52.556;7.970;2023-05-10T15:33:12;22.00;99.90
16515;DHT22;8370;52.556;7.970;2023-05-10T15:35:38;21.70;99.90
16515;DHT22;8370;52.556;7.970;2023-05-10T15:38:05;21.30;99.90
16515;DHT22;8370;52.556;7.970;2023-05-10T15:40:31;21.00;99.90
16515;DHT22;8370;52.556;7.970;2023-05-10T15:42:56;20.80;99.90
16515;DHT22;8370;52.556;7.970;2023-05-10T15:45:22;20.50;99.90
16515;DHT22;8370;52.556;7.970;2023-05-10T15:47:47;20.30;99.90
16515;DHT22;8370;52.556;7.970;2023-05-10T15:50:14;20.10;99.90
16515;DHT22;8370;52.556;7.970;2023-05-10T15:52:39;20.00;99.90
16515;DHT22;8370;52.556;7.970;2023-05-10T15:55:06;19.90;99.90
16515;DHT22;8370;52.556;7.970;2023-05-10T15:57:40;20.00;99.90
16515;DHT22;8370;52.556;7.970;2023-05-10T16:00:07;20.00;99.90
16515;DHT22;8370;52.556;7.970;2023-05-10T16:02:33;20.20;99.90
16515;DHT22;8370;52.556;7.970;2023-05-10T16:04:58;20.30;99.90
16515;DHT22;8370;52.556;7.970;2023-05-10T16:07:24;20.20;99.90
16515;DHT22;8370;52.556;7.970;2023-05-10T16:09:49;20.30;99.90
16515;DHT22;8370;52.556;7.970;2023-05-10T16:12:14;20.40;99.90